Latest Weather Observations for Cape Willoughby

IDS60801

Issued at 9:21 pm CDT Saturday 23 February 2019 (issued every 10 minutes, with the page automatically refreshed every 10 minutes)

About weather observations | Map of weather stations | Latest weather observations for SA | Other Formats
Station Details ID: 022803 Name: CAPE WILLOUGHBY Lat: -35.84 Lon: 138.13 Height: 55.0 m
Data from the previous 72 hours. | See also: Recent months at Cape Willoughby
Date/Time
CDT
Temp
°C
App
Temp
°C
Dew
Point
°C
Rel
Hum
%
Delta-T
°C
Wind Press
QNH
hPa
Press
MSL
hPa
Rain since
9am
mm
Dir  Spd
km/h
Gust
km/h
Spd
kts
Gust
kts
23/09:00pm 18.7 17.8 15.9 84 1.7 SSE 15 19 8 10 1021.8 1021.6 0.0
23/08:30pm 18.6 17.9 15.5 82 1.8 SSE 13 19 7 10 1021.7 1021.5 0.0
23/08:00pm 18.7 18.4 15.4 81 1.9 SSE 11 15 6 8 1021.5 1021.3 0.0
23/07:30pm 18.9 19.0 15.4 80 2.1 SSE 9 13 5 7 1021.5 1021.3 0.0
23/07:00pm 19.2 18.5 15.5 79 2.2 SSE 13 17 7 9 1021.4 1021.2 0.0
23/06:30pm 19.8 18.9 15.9 78 2.3 SE 15 17 8 9 1021.4 1021.2 0.0
23/06:00pm 20.3 19.4 15.9 76 2.6 SE 15 19 8 10 1021.5 1021.3 0.0
23/05:30pm 20.3 19.1 16.1 77 2.5 SE 17 22 9 12 1021.5 1021.3 0.0
23/05:00pm 20.6 18.9 15.8 74 2.9 SE 19 22 10 12 1021.7 1021.5 0.0
23/04:30pm 20.6 19.3 15.8 74 2.9 SE 17 20 9 11 1022.0 1021.8 0.0
23/04:00pm 20.7 19.1 16.1 75 2.8 SE 19 22 10 12 1022.2 1022.0 0.0
23/03:30pm 20.2 18.4 15.4 74 2.8 SE 19 22 10 12 1022.5 1022.3 0.0
23/03:00pm 20.5 18.6 15.3 72 3.1 ESE 19 22 10 12 1022.9 1022.7 0.0
23/02:30pm 21.0 19.1 15.8 72 3.1 SE 20 24 11 13 1023.0 1022.8 0.0
23/02:00pm 20.9 19.6 15.7 72 3.1 ESE 17 19 9 10 1023.1 1022.9 0.0
23/01:30pm 20.9 19.9 15.7 72 3.1 ESE 15 20 8 11 1023.2 1023.0 0.0
23/01:00pm 20.4 18.8 15.0 71 3.2 ESE 17 20 9 11 1023.3 1023.1 0.0
23/12:30pm 20.4 18.6 15.4 73 3.0 ESE 19 24 10 13 1023.4 1023.2 0.0
23/12:00pm 19.9 17.7 14.9 73 2.9 ESE 20 26 11 14 1023.7 1023.5 0.0
23/11:30am 20.0 17.6 15.4 75 2.7 E 22 26 12 14 1024.0 1023.8 0.0
23/11:00am 19.8 17.4 15.4 76 2.6 E 22 26 12 14 1024.0 1023.8 0.0
23/10:30am 19.6 17.2 15.5 77 2.4 ESE 22 28 12 15 1024.1 1023.9 0.0
23/10:00am 19.4 17.0 15.5 78 2.3 E 22 28 12 15 1024.1 1023.9 0.0
23/09:30am 19.4 17.1 15.7 79 2.2 E 22 28 12 15 1024.0 1023.8 0.0
23/09:00am 19.1 16.5 15.8 81 2.0 E 24 28 13 15 1023.8 1023.6 0.0
23/08:30am 18.5 16.1 15.4 82 1.8 ESE 22 30 12 16 1023.6 1023.4 0.0
23/08:00am 18.2 15.8 15.3 83 1.7 ESE 22 28 12 15 1023.3 1023.1 0.0
23/07:30am 17.9 15.5 15.3 85 1.5 ESE 22 30 12 16 1023.1 1022.9 0.0
23/07:00am 17.6 14.7 15.0 85 1.5 ESE 24 30 13 16 1022.9 1022.7 0.0
23/06:30am 17.7 15.3 15.5 87 1.3 E 22 28 12 15 1022.6 1022.4 0.0
23/06:00am 17.6 14.7 15.2 86 1.4 ESE 24 28 13 15 1022.3 1022.1 0.0
23/05:30am 17.4 15.3 15.2 87 1.3 ESE 20 26 11 14 1022.1 1021.9 0.0
23/05:00am 17.5 15.5 15.5 88 1.2 ESE 20 24 11 13 1022.1 1021.9 0.0
23/04:30am 17.4 15.4 15.4 88 1.2 ESE 20 24 11 13 1022.1 1021.9 0.0
23/04:00am 17.4 15.0 15.4 88 1.2 ESE 22 28 12 15 1022.1 1021.9 0.0
23/03:30am 17.5 15.1 15.5 88 1.2 ESE 22 28 12 15 1022.1 1021.9 0.0
23/03:00am 17.5 15.5 15.5 88 1.2 ESE 20 24 11 13 1022.1 1021.9 0.0
23/02:30am 17.6 15.9 15.8 89 1.1 ESE 19 22 10 12 1022.3 1022.1 0.0
23/02:00am 17.4 15.6 15.4 88 1.2 ESE 19 24 10 13 1022.4 1022.2 0.0
23/01:30am 17.4 15.4 15.4 88 1.2 ESE 20 28 11 15 1022.7 1022.5 0.0
23/01:00am 17.4 14.5 15.2 87 1.3 SE 24 32 13 17 1022.8 1022.6 0.0
23/12:30am 17.5 14.7 15.3 87 1.3 ESE 24 30 13 16 1023.0 1022.8 0.0
23/12:00am 17.5 13.9 15.3 87 1.3 SE 28 32 15 17 1023.1 1022.9 0.0
 
Date/Time
CDT
Temp
°C
App
Temp
°C
Dew
Point
°C
Rel
Hum
%
Delta-T
°C
Wind Press
QNH
hPa
Press
MSL
hPa
Rain since
9am
mm
Dir  Spd
km/h
Gust
km/h
Spd
kts
Gust
kts
22/11:30pm 17.5 13.9 15.3 87 1.3 SE 28 33 15 18 1023.3 1023.1 0.0
22/11:00pm 17.6 14.1 15.4 87 1.3 SE 28 35 15 19 1023.3 1023.1 0.0
22/10:30pm 17.5 13.5 15.3 87 1.3 SE 30 35 16 19 1023.4 1023.2 0.0
22/10:00pm 17.6 14.1 15.4 87 1.3 SE 28 39 15 21 1023.3 1023.1 0.0
22/09:30pm 17.6 13.6 15.2 86 1.4 SE 30 35 16 19 1023.1 1022.9 0.0
22/09:00pm 17.9 14.4 15.5 86 1.4 SSE 28 33 15 18 1022.9 1022.7 0.0
22/08:30pm 17.6 13.1 14.9 84 1.6 SE 32 37 17 20 1022.6 1022.4 0.0
22/08:00pm 17.7 13.6 14.8 83 1.7 SE 30 35 16 19 1022.4 1022.2 0.0
22/07:30pm 18.0 14.2 14.7 81 1.9 SE 28 33 15 18 1022.4 1022.2 0.0
22/07:00pm 18.2 14.7 14.5 79 2.1 SE 26 32 14 17 1022.3 1022.1 0.0
22/06:30pm 18.4 14.5 14.5 78 2.3 SE 28 32 15 17 1022.3 1022.1 0.0
22/06:00pm 18.4 14.4 14.1 76 2.5 SE 28 33 15 18 1022.4 1022.2 0.0
22/05:30pm 18.9 14.7 14.6 76 2.5 SE 30 35 16 19 1022.4 1022.2 0.0
22/05:00pm 18.8 14.5 14.5 76 2.5 SE 30 35 16 19 1022.3 1022.1 0.0
22/04:30pm 19.0 14.7 14.5 75 2.6 SE 30 35 16 19 1022.6 1022.4 0.0
22/04:00pm 19.1 14.7 14.1 73 2.9 SE 30 35 16 19 1022.7 1022.5 0.0
22/03:30pm 19.0 14.8 13.6 71 3.1 SE 28 33 15 18 1023.1 1022.9 0.0
22/03:00pm 19.0 14.4 13.6 71 3.1 SE 30 35 16 19 1023.3 1023.1 0.0
22/02:30pm 19.3 15.2 13.9 71 3.1 SE 28 35 15 19 1023.6 1023.4 0.0
22/02:00pm 19.5 15.5 14.1 71 3.1 SE 28 32 15 17 1023.8 1023.6 0.0
22/01:30pm 19.2 15.8 13.8 71 3.1 SE 24 32 13 17 1023.8 1023.6 0.0
22/01:00pm 19.7 16.9 14.3 71 3.1 ESE 22 28 12 15 1023.9 1023.7 0.0
22/12:30pm 19.4 16.8 13.8 70 3.2 ESE 20 24 11 13 1024.0 1023.8 0.0
22/12:00pm 19.8 17.5 14.2 70 3.2 ESE 19 24 10 13 1024.1 1023.9 0.0
22/11:30am 19.2 16.6 13.8 71 3.1 ESE 20 28 11 15 1024.1 1023.9 0.0
22/11:00am 19.3 16.2 13.5 69 3.3 E 22 26 12 14 1024.1 1023.9 0.0
22/10:30am 19.3 16.7 13.9 71 3.1 E 20 24 11 13 1024.2 1024.0 0.0
22/10:00am 18.9 16.3 13.7 72 3.0 E 20 24 11 13 1023.9 1023.7 0.0
22/09:30am 18.7 16.4 14.0 74 2.7 E 19 24 10 13 1023.9 1023.7 0.0
22/09:00am 18.2 15.3 13.9 76 2.5 E 22 28 12 15 1023.5 1023.3 0.0
22/08:30am 17.8 14.5 13.9 78 2.2 E 24 32 13 17 1023.2 1023.0 0.0
22/08:00am 17.2 13.8 13.7 80 2.0 E 24 32 13 17 1023.1 1022.9 0.0
22/07:30am 16.7 13.2 13.4 81 1.9 E 24 30 13 16 1022.8 1022.6 0.0
22/07:00am 16.3 12.7 13.0 81 1.8 ESE 24 32 13 17 1022.4 1022.2 0.0
22/06:30am 16.5 12.6 13.2 81 1.8 ESE 26 32 14 17 1022.1 1021.9 0.0
22/06:00am 16.7 12.8 13.4 81 1.9 ESE 26 33 14 18 1022.0 1021.8 0.0
22/05:30am 16.5 12.4 12.8 79 2.0 ESE 26 37 14 20 1021.8 1021.6 0.0
22/05:00am 16.8 13.3 13.5 81 1.9 ESE 24 32 13 17 1021.8 1021.6 0.0
22/04:30am 16.6 13.0 13.1 80 2.0 ESE 24 33 13 18 1021.8 1021.6 0.0
22/04:00am 16.9 13.5 13.6 81 1.9 ESE 24 35 13 19 1021.8 1021.6 0.0
22/03:30am 16.8 13.3 13.5 81 1.9 ESE 24 32 13 17 1021.7 1021.5 0.0
22/03:00am 16.8 13.3 13.3 80 2.0 ESE 24 32 13 17 1021.7 1021.5 0.0
22/02:30am 16.8 12.9 13.3 80 2.0 ESE 26 32 14 17 1021.7 1021.5 0.0
22/02:00am 16.8 12.1 13.3 80 2.0 SE 30 33 16 18 1021.8 1021.6 0.0
22/01:30am 17.0 13.2 13.7 81 1.9 ESE 26 33 14 18 1022.0 1021.8 0.0
22/01:00am 16.8 12.5 13.1 79 2.1 SE 28 35 15 19 1022.1 1021.9 0.0
22/12:30am 16.6 12.1 12.6 77 2.2 SE 28 35 15 19 1022.1 1021.9 0.0
22/12:00am 16.8 12.4 12.9 78 2.2 SE 28 35 15 19 1022.2 1022.0 0.0
 
Date/Time
CDT
Temp
°C
App
Temp
°C
Dew
Point
°C
Rel
Hum
%
Delta-T
°C
Wind Press
QNH
hPa
Press
MSL
hPa
Rain since
9am
mm
Dir  Spd
km/h
Gust
km/h
Spd
kts
Gust
kts
21/11:30pm 16.8 11.9 12.7 77 2.3 SE 30 33 16 18 1022.3 1022.1 0.0
21/11:00pm 16.9 12.8 12.6 76 2.4 SE 26 32 14 17 1022.3 1022.1 0.0
21/10:30pm 16.9 12.8 12.6 76 2.4 SE 26 32 14 17 1022.4 1022.2 0.0
21/10:00pm 16.8 12.9 12.1 74 2.6 SE 24 30 13 16 1022.4 1022.2 0.0
21/09:30pm 16.8 12.8 11.9 73 2.7 SE 24 30 13 16 1022.2 1022.0 0.0
21/09:00pm 16.7 12.5 11.2 70 3.0 SSE 24 30 13 16 1022.1 1021.9 0.0
21/08:30pm 16.9 12.9 11.8 72 2.8 SE 24 32 13 17 1021.8 1021.6 0.0
21/08:00pm 17.1 13.5 11.8 71 2.9 SSE 22 30 12 16 1021.7 1021.5 0.0
21/07:30pm 17.2 12.7 11.5 69 3.1 SE 26 32 14 17 1021.5 1021.3 0.0
21/07:00pm 17.6 13.9 11.4 67 3.4 SSE 22 28 12 15 1021.3 1021.1 0.0
21/06:30pm 17.6 14.1 10.9 65 3.6 SSE 20 28 11 15 1021.3 1021.1 0.0
21/06:00pm 17.8 14.4 11.1 65 3.6 SSE 20 26 11 14 1021.3 1021.1 0.0
21/05:30pm 18.0 14.2 11.1 64 3.7 SSE 22 28 12 15 1021.3 1021.1 0.0
21/05:00pm 18.6 15.4 11.2 62 4.0 SSE 19 26 10 14 1021.3 1021.1 0.0
21/04:30pm 18.4 15.0 11.2 63 3.9 SSE 20 26 11 14 1021.2 1021.0 0.0
21/04:00pm 18.7 16.1 12.0 65 3.7 SSE 17 22 9 12 1021.5 1021.3 0.0
21/03:30pm 18.8 16.1 11.6 63 3.9 SSE 17 24 9 13 1021.8 1021.6 0.0
21/03:00pm 19.4 16.2 11.2 59 4.5 SSE 19 24 10 13 1022.2 1022.0 0.0
21/02:30pm 18.7 16.0 10.5 59 4.4 SSE 15 19 8 10 1022.5 1022.3 0.0
21/02:00pm 18.4 15.6 10.0 58 4.5 SSE 15 20 8 11 1022.5 1022.3 0.0
21/01:30pm 19.7 16.5 10.1 54 5.1 SE 17 20 9 11 1022.6 1022.4 0.0
21/01:00pm 19.4 16.8 10.7 57 4.7 SE 15 19 8 10 1022.7 1022.5 0.0
21/12:30pm 19.9 17.5 11.4 58 4.7 SE 15 19 8 10 1023.0 1022.8 0.0
21/12:00pm 19.9 17.2 11.7 59 4.5 SE 17 24 9 13 1023.0 1022.8 0.0
21/11:30am 19.0 16.1 11.1 60 4.3 SE 17 22 9 12 1022.8 1022.6 0.0
21/11:00am 18.9 16.9 11.5 62 4.1 SE 13 17 7 9 1022.8 1022.6 0.0
21/10:30am 18.4 16.3 11.0 62 4.0 SE 13 20 7 11 1022.5 1022.3 0.0
21/10:00am 18.5 17.3 11.6 64 3.8 SE 9 15 5 8 1022.2 1022.0 0.0
21/09:30am 17.8 16.4 10.9 64 3.7 S 9 13 5 7 1022.0 1021.8 0.0
21/09:00am 17.5 15.8 11.1 66 3.5 SSE 11 17 6 9 1021.9 1021.7 0.0
21/08:30am 17.4 15.7 11.2 67 3.3 SE 11 17 6 9 1021.6 1021.4 0.0
21/08:00am 17.3 15.2 11.3 68 3.3 SSE 13 24 7 13 1021.2 1021.0 0.0
21/07:30am 17.2 14.6 10.8 66 3.4 SSE 15 22 8 12 1020.8 1020.6 0.0
21/07:00am 17.2 14.2 10.8 66 3.4 S 17 24 9 13 1020.5 1020.3 0.0
21/06:30am 17.3 14.6 11.6 69 3.1 S 17 24 9 13 1020.0 1019.8 0.0
21/06:00am 17.2 15.1 11.2 68 3.2 S 13 17 7 9 1019.8 1019.7 0.0
21/05:30am 17.2 14.4 11.5 69 3.1 SSE 17 20 9 11 1019.6 1019.5 0.0
21/05:00am 17.2 14.1 11.7 70 3.0 S 19 24 10 13 1019.4 1019.3 0.0
21/04:30am 17.1 14.0 11.6 70 3.0 S 19 24 10 13 1019.2 1019.1 0.0
21/04:00am 17.0 13.9 12.1 73 2.7 S 20 26 11 14 1019.2 1019.1 0.0
21/03:30am 16.9 13.7 12.0 73 2.7 S 20 26 11 14 1019.2 1019.1 0.0
21/03:00am 16.9 13.9 12.6 76 2.4 SSE 20 24 11 13 1019.5 1019.4 0.0
21/02:30am 17.0 13.7 12.9 77 2.3 SSE 22 32 12 17 1019.5 1019.4 0.0
21/02:00am 16.9 12.7 13.4 80 2.0 S 28 35 15 19 1019.5 1019.4 0.0
21/01:30am 17.4 14.9 13.5 78 2.2 S 19 22 10 12 1019.8 1019.7 0.0
21/01:00am 17.2 14.2 13.7 80 2.0 SSE 22 28 12 15 1019.8 1019.7 0.0
21/12:30am 17.0 16.0 14.5 85 1.4 SSE 13 15 7 8 1020.0 1019.8 0.0
21/12:00am 16.7 15.2 14.2 85 1.4 SSE 15 19 8 10 1020.1 1019.9 0.0
 
Date/Time
CDT
Temp
°C
App
Temp
°C
Dew
Point
°C
Rel
Hum
%
Delta-T
°C
Wind Press
QNH
hPa
Press
MSL
hPa
Rain since
9am
mm
Dir  Spd
km/h
Gust
km/h
Spd
kts
Gust
kts
20/11:30pm 16.5 15.0 14.3 87 1.3 SSE 15 20 8 11 1020.1 1019.9 0.0
20/11:00pm 16.6 14.5 14.8 89 1.0 SSE 19 24 10 13 1020.1 1019.9 0.0
20/10:30pm 16.5 13.1 14.7 89 1.0 S 26 32 14 17 1020.2 1020.0 0.0
20/10:00pm 16.8 14.0 14.3 85 1.4 SSW 22 28 12 15 1020.1 1019.9 0.0
20/09:30pm 16.5 14.0 14.0 85 1.4 SSW 20 28 11 15 1019.7 1019.6 0.0

Other formats

Comma delimited format used in spreadsheet applications
http://www.bom.gov.au/fwo/IDS60801/IDS60801.94822.axf

JavaScript Object Notation format (JSON) in row-major order
http://www.bom.gov.au/fwo/IDS60801/IDS60801.94822.json

Data quality

Most of these data are generated automatically and are frequently updated. Quality checks on data are not normally performed. It is possible for incorrect values to appear. Refer to information at About Latest Weather Observations and please check the disclaimer before using these data.